createdAt,value
2023-03-08T00:00:08.092Z,76.33
2023-03-08T00:02:36.579Z,76.18
2023-03-08T00:05:04.684Z,76.05
2023-03-08T00:07:32.504Z,77.82
2023-03-08T00:09:59.903Z,78.38
2023-03-08T00:12:29.373Z,77.37
2023-03-08T00:14:56.844Z,77.54
2023-03-08T00:17:24.539Z,78.13
2023-03-08T00:19:52.330Z,77.62
2023-03-08T00:22:19.800Z,76.05
2023-03-08T00:24:47.358Z,76.64
2023-03-08T00:27:14.809Z,76.28
2023-03-08T00:29:43.542Z,76.51
2023-03-08T00:32:10.969Z,76.21
2023-03-08T00:34:38.452Z,75.83
2023-03-08T00:37:05.927Z,77.02
2023-03-08T00:39:33.349Z,77.41
2023-03-08T00:42:00.735Z,78.07
2023-03-08T00:44:28.206Z,77.32
2023-03-08T00:46:57.084Z,76.36
2023-03-08T00:49:24.538Z,77.12
2023-03-08T00:51:51.910Z,76.46
2023-03-08T00:54:19.334Z,76.93
2023-03-08T00:56:46.705Z,77.34
2023-03-08T00:59:14.154Z,76.47
2023-03-08T01:01:41.614Z,77.81
2023-03-08T01:04:10.399Z,78.72
2023-03-08T01:06:37.864Z,77.58
2023-03-08T01:09:05.365Z,77.38
2023-03-08T01:11:35.357Z,76.98
2023-03-08T01:14:02.837Z,77.46
2023-03-08T01:16:32.350Z,77.16
2023-03-08T01:19:00.669Z,78.26
2023-03-08T01:21:31.280Z,77.77
2023-03-08T01:23:59.227Z,77.59
2023-03-08T01:26:27.523Z,78.19
2023-03-08T01:28:55.111Z,79.54
2023-03-08T01:31:24.740Z,79.63
2023-03-08T01:33:52.660Z,77.92
2023-03-08T01:36:22.205Z,78.62
2023-03-08T01:38:51.776Z,78.84
2023-03-08T01:41:20.943Z,77.96
2023-03-08T01:43:49.655Z,80.31
2023-03-08T01:46:26.712Z,80.29
2023-03-08T01:48:57.815Z,80.55
2023-03-08T01:51:34.852Z,79.56
2023-03-08T01:54:10.456Z,79.38
2023-03-08T01:56:39.525Z,79.90
2023-03-08T01:59:08.243Z,79.59
2023-03-08T02:01:35.886Z,80.50
2023-03-08T02:04:04.127Z,79.10
2023-03-08T02:06:31.548Z,79.34
2023-03-08T02:09:03.193Z,79.94
2023-03-08T02:11:33.607Z,79.94
2023-03-08T02:14:01.478Z,80.43
2023-03-08T02:16:29.413Z,79.68
2023-03-08T02:18:59.064Z,79.33
2023-03-08T02:21:27.607Z,83.65
2023-03-08T02:23:57.493Z,81.24
2023-03-08T02:26:25.631Z,81.38
2023-03-08T02:28:53.069Z,81.21
2023-03-08T02:31:20.444Z,82.11
2023-03-08T02:33:47.878Z,80.77
2023-03-08T02:36:15.315Z,80.95
2023-03-08T02:38:42.784Z,79.03
2023-03-08T02:41:11.585Z,81.46
2023-03-08T02:43:39.153Z,79.42
2023-03-08T02:46:07.017Z,81.23
2023-03-08T02:48:34.451Z,80.54
2023-03-08T02:51:08.378Z,81.59
2023-03-08T02:53:35.891Z,81.25
2023-03-08T02:56:03.299Z,79.92
2023-03-08T02:58:32.064Z,79.37
2023-03-08T03:00:59.512Z,79.29
2023-03-08T03:03:26.945Z,79.15
2023-03-08T03:05:54.361Z,78.11
2023-03-08T03:08:21.794Z,78.28
2023-03-08T03:10:49.277Z,79.81
2023-03-08T03:13:16.686Z,78.21
2023-03-08T03:15:45.563Z,82.66
2023-03-08T03:18:13.077Z,81.71
2023-03-08T03:20:40.574Z,80.08
2023-03-08T03:23:08.865Z,82.66
2023-03-08T03:25:37.888Z,81.67
2023-03-08T03:28:05.566Z,80.35
2023-03-08T03:30:32.978Z,80.77
2023-03-08T03:33:01.756Z,79.35
2023-03-08T03:35:29.240Z,80.35
2023-03-08T03:37:56.633Z,79.75
2023-03-08T03:40:24.044Z,79.68
2023-03-08T03:42:51.446Z,81.61
2023-03-08T03:45:19.020Z,79.18
2023-03-08T03:47:47.269Z,81.69
2023-03-08T03:50:16.203Z,78.66
2023-03-08T03:52:43.626Z,78.02
2023-03-08T03:55:11.228Z,77.95
2023-03-08T03:57:38.655Z,78.75
2023-03-08T04:00:07.881Z,78.35
2023-03-08T04:02:35.367Z,80.39
2023-03-08T04:05:02.923Z,79.14
2023-03-08T04:07:31.693Z,79.29
2023-03-08T04:09:59.130Z,78.70
2023-03-08T04:12:26.629Z,77.83
2023-03-08T04:14:54.657Z,79.09
2023-03-08T04:17:22.093Z,78.31
2023-03-08T04:19:50.011Z,77.83
2023-03-08T04:22:17.681Z,77.46
2023-03-08T04:24:46.442Z,78.17
2023-03-08T04:27:13.864Z,78.67
2023-03-08T04:29:41.294Z,78.07
2023-03-08T04:32:08.744Z,79.18
2023-03-08T04:34:36.147Z,78.29
2023-03-08T04:37:03.581Z,78.31
2023-03-08T04:39:31.115Z,78.02
2023-03-08T04:41:59.880Z,79.32
2023-03-08T04:44:27.287Z,78.05
2023-03-08T04:46:54.917Z,78.30
2023-03-08T04:49:22.476Z,78.71
2023-03-08T04:51:49.909Z,79.12
2023-03-08T04:54:17.614Z,78.34
2023-03-08T04:56:45.085Z,78.91
2023-03-08T04:59:13.833Z,78.49
2023-03-08T05:01:42.631Z,79.23
2023-03-08T05:04:11.975Z,79.14
2023-03-08T05:06:39.574Z,78.33
2023-03-08T05:09:07.007Z,78.59
2023-03-08T05:11:34.466Z,78.38
2023-03-08T05:14:01.870Z,79.15
2023-03-08T05:16:30.751Z,79.71
2023-03-08T05:18:58.226Z,79.21
2023-03-08T05:21:25.669Z,79.21
2023-03-08T05:23:53.071Z,80.19
2023-03-08T05:26:20.570Z,79.24
2023-03-08T05:28:47.990Z,79.96
2023-03-08T05:31:17.023Z,80.30
2023-03-08T05:33:47.362Z,79.34
2023-03-08T05:36:16.603Z,79.38
2023-03-08T05:38:44.427Z,80.11
2023-03-08T05:41:14.534Z,78.38
2023-03-08T05:43:42.487Z,80.72
2023-03-08T05:46:12.742Z,82.28
2023-03-08T05:48:40.812Z,80.71
2023-03-08T05:51:12.177Z,79.36
2023-03-08T05:53:40.145Z,79.54
2023-03-08T05:56:09.835Z,80.54
2023-03-08T05:58:37.490Z,80.11
2023-03-08T06:01:11.284Z,78.63
2023-03-08T06:03:38.893Z,77.75
2023-03-08T06:06:06.616Z,79.84
2023-03-08T06:08:35.497Z,78.37
2023-03-08T06:11:02.916Z,78.00
2023-03-08T06:13:30.811Z,77.44
2023-03-08T06:15:59.696Z,77.28
2023-03-08T06:18:27.769Z,77.92
2023-03-08T06:21:00.098Z,76.95
2023-03-08T06:23:28.705Z,76.84
2023-03-08T06:25:58.842Z,77.27
2023-03-08T06:28:27.512Z,77.50
2023-03-08T06:30:55.439Z,77.28
2023-03-08T06:33:25.553Z,77.52
2023-03-08T06:36:00.956Z,77.29
2023-03-08T06:38:32.360Z,76.40
2023-03-08T06:41:02.682Z,78.18
2023-03-08T06:43:30.742Z,76.28
2023-03-08T06:45:58.370Z,75.82
2023-03-08T06:48:25.977Z,75.45
2023-03-08T06:50:53.472Z,74.96
2023-03-08T06:53:20.877Z,79.02
2023-03-08T06:55:48.383Z,79.02
2023-03-08T06:58:17.110Z,76.85
2023-03-08T07:00:44.597Z,78.76
2023-03-08T07:03:13.116Z,76.01
2023-03-08T07:05:40.732Z,75.52
2023-03-08T07:08:08.771Z,74.14
2023-03-08T07:10:36.227Z,73.41
2023-03-08T07:13:03.830Z,74.34
2023-03-08T07:15:33.014Z,73.17
2023-03-08T07:18:00.601Z,72.93
2023-03-08T07:20:28.576Z,73.81
2023-03-08T07:22:56.045Z,73.18
2023-03-08T07:25:23.472Z,73.11
2023-03-08T07:27:50.899Z,73.12
2023-03-08T07:30:18.531Z,72.65
2023-03-08T07:32:47.654Z,73.83
2023-03-08T07:35:16.774Z,73.54
2023-03-08T07:37:46.003Z,73.52
2023-03-08T07:40:14.852Z,74.57
2023-03-08T07:42:42.359Z,73.67
2023-03-08T07:45:11.133Z,74.09
2023-03-08T07:47:38.764Z,73.52
2023-03-08T07:50:08.917Z,73.54
2023-03-08T07:52:36.408Z,72.86
2023-03-08T07:55:04.053Z,72.97
2023-03-08T07:57:31.883Z,73.85
2023-03-08T07:59:59.296Z,73.24
2023-03-08T08:02:26.854Z,72.54
2023-03-08T08:04:54.288Z,72.31
2023-03-08T08:07:23.131Z,73.11
2023-03-08T08:09:50.590Z,72.81
2023-03-08T08:12:18.181Z,71.74
2023-03-08T08:14:45.989Z,71.12
2023-03-08T08:17:13.450Z,70.88
2023-03-08T08:19:41.049Z,71.26
2023-03-08T08:22:08.809Z,68.14
2023-03-08T08:24:37.591Z,70.23
2023-03-08T08:27:06.075Z,70.12
2023-03-08T08:29:33.953Z,68.72
2023-03-08T08:32:01.431Z,68.76
2023-03-08T08:34:28.887Z,67.53
2023-03-08T08:36:56.587Z,69.43
2023-03-08T08:39:24.342Z,67.88
2023-03-08T08:41:53.160Z,68.02
2023-03-08T08:44:20.614Z,68.53
2023-03-08T08:46:48.064Z,69.50
2023-03-08T08:49:15.522Z,68.48
2023-03-08T08:51:42.987Z,66.57
2023-03-08T08:54:10.461Z,67.46
2023-03-08T08:56:42.601Z,66.62
2023-03-08T08:59:12.916Z,65.48
2023-03-08T09:01:44.050Z,65.82
2023-03-08T09:04:13.276Z,67.25
2023-03-08T09:06:41.646Z,67.08
2023-03-08T09:09:09.620Z,66.04
2023-03-08T09:11:48.563Z,66.44
2023-03-08T09:14:20.891Z,66.56
2023-03-08T09:16:48.407Z,66.05
2023-03-08T09:19:16.043Z,64.60
2023-03-08T09:21:43.620Z,63.20
2023-03-08T09:24:12.103Z,64.74
2023-03-08T09:26:39.718Z,62.04
2023-03-08T09:29:07.675Z,63.76
2023-03-08T09:31:39.805Z,62.83
2023-03-08T09:34:08.994Z,64.84
2023-03-08T09:36:37.173Z,65.61
2023-03-08T09:39:05.259Z,63.59
2023-03-08T09:41:46.106Z,62.91
2023-03-08T09:44:21.187Z,61.43
2023-03-08T09:46:54.388Z,61.62
2023-03-08T09:49:29.258Z,60.84
2023-03-08T09:52:03.791Z,61.87
2023-03-08T09:54:33.998Z,59.69
2023-03-08T09:57:08.848Z,61.08
2023-03-08T09:59:42.432Z,60.18
2023-03-08T10:02:23.762Z,58.31
2023-03-08T10:05:12.843Z,60.10
2023-03-08T10:07:50.247Z,58.74
2023-03-08T10:10:26.372Z,58.28
2023-03-08T10:13:19.982Z,58.49
2023-03-08T10:15:52.235Z,60.65
2023-03-08T10:18:29.296Z,60.40
2023-03-08T10:20:58.908Z,59.03
2023-03-08T10:23:30.162Z,57.06
2023-03-08T10:25:57.637Z,58.93
2023-03-08T10:28:26.392Z,58.80
2023-03-08T10:30:58.319Z,58.41
2023-03-08T10:33:32.666Z,58.67
2023-03-08T10:36:03.726Z,59.90
2023-03-08T10:38:34.290Z,57.83
2023-03-08T10:41:04.030Z,58.97
2023-03-08T10:43:34.038Z,60.22
2023-03-08T10:46:04.786Z,59.12
2023-03-08T10:48:33.857Z,60.18
2023-03-08T10:51:02.986Z,59.26
2023-03-08T10:53:31.373Z,57.02
2023-03-08T10:56:01.093Z,55.97
2023-03-08T10:58:32.774Z,56.30
2023-03-08T11:01:02.561Z,55.31
2023-03-08T11:03:30.244Z,54.52
2023-03-08T11:06:01.241Z,53.64
2023-03-08T11:08:31.961Z,53.28
2023-03-08T11:11:06.543Z,54.08
2023-03-08T11:13:36.175Z,54.67
2023-03-08T11:16:23.258Z,53.97
2023-03-08T11:19:01.598Z,54.60
2023-03-08T11:21:40.181Z,56.34
2023-03-08T11:24:23.537Z,55.03
2023-03-08T11:27:03.543Z,55.53
2023-03-08T11:29:43.293Z,55.13
2023-03-08T11:32:29.475Z,58.89
2023-03-08T11:35:06.594Z,56.96
2023-03-08T11:37:43.043Z,56.21
2023-03-08T11:40:24.862Z,56.20
2023-03-08T11:43:15.199Z,55.99
2023-03-08T11:45:51.635Z,57.49
2023-03-08T11:48:42.616Z,54.90
2023-03-08T11:51:14.550Z,56.58
2023-03-08T11:53:55.529Z,55.91
2023-03-08T11:56:43.533Z,54.70
2023-03-08T11:59:18.691Z,54.57
2023-03-08T12:01:50.629Z,55.14
2023-03-08T12:04:20.778Z,55.59
2023-03-08T12:06:48.940Z,56.53
2023-03-08T12:09:29.170Z,56.94
2023-03-08T12:12:03.540Z,55.85
2023-03-08T12:14:33.584Z,54.59
2023-03-08T12:17:08.453Z,55.05
2023-03-08T12:19:43.282Z,53.72
2023-03-08T12:22:26.781Z,53.84
2023-03-08T12:25:05.038Z,54.98
2023-03-08T12:27:40.529Z,54.22
2023-03-08T12:30:18.678Z,54.24
2023-03-08T12:32:48.294Z,53.24
2023-03-08T12:35:27.652Z,53.99
2023-03-08T12:38:00.761Z,54.21
2023-03-08T12:40:38.523Z,54.44
2023-03-08T12:43:10.246Z,53.38
2023-03-08T12:45:38.810Z,53.19
2023-03-08T12:48:18.867Z,53.80
2023-03-08T12:50:59.963Z,53.05
2023-03-08T12:53:33.481Z,54.17
2023-03-08T12:56:06.718Z,53.36
2023-03-08T12:58:37.780Z,53.59
2023-03-08T13:01:08.046Z,53.87
2023-03-08T13:03:41.190Z,55.47
2023-03-08T13:06:44.661Z,56.22
2023-03-08T13:09:22.064Z,54.91
2023-03-08T13:11:54.908Z,55.11
2023-03-08T13:14:28.076Z,56.66
2023-03-08T13:16:55.606Z,56.80
2023-03-08T13:19:27.869Z,55.39
2023-03-08T13:22:05.164Z,54.03
2023-03-08T13:24:41.188Z,57.06
2023-03-08T13:27:20.140Z,59.38
2023-03-08T13:29:48.806Z,58.32
2023-03-08T13:32:19.123Z,57.92
2023-03-08T13:34:58.745Z,58.37
2023-03-08T13:37:28.947Z,58.31
2023-03-08T13:39:59.459Z,59.28
2023-03-08T13:42:29.808Z,60.14
2023-03-08T13:45:09.298Z,59.72
2023-03-08T13:47:39.720Z,59.07
2023-03-08T13:50:07.966Z,64.95
2023-03-08T13:52:39.151Z,68.31
2023-03-08T13:55:09.480Z,65.98
2023-03-08T13:57:41.976Z,65.54
2023-03-08T14:00:25.513Z,64.08
2023-03-08T14:02:53.443Z,63.44
2023-03-08T14:05:23.618Z,63.15
2023-03-08T14:08:03.090Z,65.62
2023-03-08T14:10:36.660Z,67.32
2023-03-08T14:13:07.948Z,67.59
2023-03-08T14:15:39.296Z,67.46
2023-03-08T14:18:08.495Z,70.06
2023-03-08T14:20:36.051Z,68.19
2023-03-08T14:23:03.730Z,68.03
2023-03-08T14:25:32.746Z,68.02
2023-03-08T14:28:00.366Z,76.31
2023-03-08T14:30:30.617Z,74.54
2023-03-08T14:33:08.024Z,74.44
2023-03-08T14:35:38.775Z,72.35
2023-03-08T14:38:14.414Z,72.45
2023-03-08T14:40:48.393Z,75.10
2023-03-08T14:43:18.991Z,81.22
2023-03-08T14:45:55.043Z,80.73
2023-03-08T14:48:25.151Z,78.86
2023-03-08T14:50:55.441Z,79.36
2023-03-08T14:53:32.259Z,81.65
2023-03-08T14:56:00.827Z,78.34
2023-03-08T14:58:30.853Z,81.18
2023-03-08T15:01:01.856Z,78.39
2023-03-08T15:03:30.355Z,78.34
2023-03-08T15:05:58.556Z,76.72
2023-03-08T15:08:29.780Z,76.34
2023-03-08T15:10:57.257Z,77.26
2023-03-08T15:13:25.180Z,77.13
2023-03-08T15:15:52.803Z,77.47
2023-03-08T15:18:21.786Z,76.19
2023-03-08T15:20:51.225Z,78.05
2023-03-08T15:23:22.108Z,77.34
2023-03-08T15:25:49.611Z,77.17
2023-03-08T15:28:19.381Z,77.51
2023-03-08T15:30:46.882Z,78.15
2023-03-08T15:33:14.417Z,79.27
2023-03-08T15:35:43.424Z,79.69
2023-03-08T15:38:13.935Z,83.07
2023-03-08T15:40:42.717Z,80.17
2023-03-08T15:43:10.802Z,79.03
2023-03-08T15:45:38.664Z,80.00
2023-03-08T15:48:08.659Z,78.38
2023-03-08T15:50:36.509Z,78.08
2023-03-08T15:53:05.372Z,80.10
2023-03-08T15:55:33.324Z,81.57
2023-03-08T15:58:00.806Z,79.85
2023-03-08T16:00:28.628Z,79.90
2023-03-08T16:02:56.404Z,83.26
2023-03-08T16:05:25.171Z,82.23
2023-03-08T16:07:56.710Z,80.89
2023-03-08T16:10:25.486Z,80.17
2023-03-08T16:12:53.293Z,80.07
2023-03-08T16:15:21.209Z,80.24
2023-03-08T16:17:48.693Z,79.70
2023-03-08T16:20:16.914Z,81.57
2023-03-08T16:22:46.072Z,83.61
2023-03-08T16:25:13.870Z,80.94
2023-03-08T16:27:42.689Z,80.77
2023-03-08T16:30:12.433Z,80.94
2023-03-08T16:32:39.961Z,81.69
2023-03-08T16:35:07.814Z,81.61
2023-03-08T16:37:35.344Z,81.66
2023-03-08T16:40:03.340Z,81.61
2023-03-08T16:42:30.947Z,81.66
2023-03-08T16:44:59.762Z,82.15
2023-03-08T16:47:27.470Z,81.62
2023-03-08T16:49:54.925Z,82.21
2023-03-08T16:52:22.352Z,82.38
2023-03-08T16:54:49.752Z,83.42
2023-03-08T16:57:19.501Z,83.19
2023-03-08T16:59:48.102Z,81.50
2023-03-08T17:02:19.432Z,82.79
2023-03-08T17:04:48.220Z,83.17
2023-03-08T17:07:16.060Z,81.14
2023-03-08T17:09:43.791Z,80.22
2023-03-08T17:12:11.345Z,80.87
2023-03-08T17:14:38.972Z,82.00
2023-03-08T17:17:06.369Z,81.07
2023-03-08T17:19:35.543Z,80.91
2023-03-08T17:22:03.016Z,83.55
2023-03-08T17:24:32.292Z,81.25
2023-03-08T17:27:00.017Z,83.10
2023-03-08T17:29:28.857Z,82.33
2023-03-08T17:31:56.305Z,83.64
2023-03-08T17:34:23.953Z,82.28
2023-03-08T17:36:53.438Z,81.43
2023-03-08T17:39:21.235Z,79.93
2023-03-08T17:41:48.781Z,81.86
2023-03-08T17:44:16.584Z,81.91
2023-03-08T17:46:43.980Z,81.26
2023-03-08T17:49:13.118Z,81.05
2023-03-08T17:51:42.457Z,80.82
2023-03-08T17:54:11.847Z,82.35
2023-03-08T17:56:40.916Z,81.07
2023-03-08T17:59:08.729Z,84.44
2023-03-08T18:01:36.212Z,84.42
2023-03-08T18:04:05.843Z,82.05
2023-03-08T18:06:35.366Z,83.36
2023-03-08T18:09:06.609Z,82.08
2023-03-08T18:11:37.582Z,83.03
2023-03-08T18:14:05.889Z,84.51
2023-03-08T18:16:33.762Z,85.08
2023-03-08T18:19:06.403Z,85.17
2023-03-08T18:21:35.878Z,83.75
2023-03-08T18:24:05.005Z,84.92
2023-03-08T18:26:33.065Z,88.37
2023-03-08T18:29:01.886Z,84.81
2023-03-08T18:31:31.041Z,86.04
2023-03-08T18:33:58.562Z,81.18
2023-03-08T18:36:26.065Z,81.71
2023-03-08T18:38:53.515Z,83.54
2023-03-08T18:41:25.478Z,81.51
2023-03-08T18:43:54.538Z,86.25
2023-03-08T18:46:28.731Z,86.95
2023-03-08T18:48:57.556Z,84.54
2023-03-08T18:51:25.274Z,83.86
2023-03-08T18:53:54.584Z,83.29
2023-03-08T18:56:22.295Z,82.41
2023-03-08T18:58:49.792Z,82.64
2023-03-08T19:01:17.832Z,82.50
2023-03-08T19:03:47.175Z,83.42
2023-03-08T19:06:15.158Z,83.13
2023-03-08T19:08:42.960Z,84.22
2023-03-08T19:11:12.479Z,83.38
2023-03-08T19:13:39.910Z,83.27
2023-03-08T19:16:16.505Z,87.19
2023-03-08T19:18:50.690Z,85.07
2023-03-08T19:21:19.670Z,85.84
2023-03-08T19:23:47.545Z,85.15
2023-03-08T19:26:35.882Z,84.31
2023-03-08T19:29:05.142Z,83.94
2023-03-08T19:31:33.862Z,83.97
2023-03-08T19:34:04.799Z,83.30
2023-03-08T19:36:32.658Z,86.70
2023-03-08T19:39:00.128Z,85.89
2023-03-08T19:41:27.565Z,84.25
2023-03-08T19:43:55.277Z,83.96
2023-03-08T19:46:22.917Z,84.92
2023-03-08T19:48:50.456Z,83.20
2023-03-08T19:51:20.743Z,88.92
2023-03-08T19:53:48.213Z,90.31
2023-03-08T19:56:17.530Z,88.03
2023-03-08T19:58:45.717Z,88.33
2023-03-08T20:01:15.502Z,87.54
2023-03-08T20:03:43.803Z,85.70
2023-03-08T20:06:11.428Z,82.71
2023-03-08T20:08:40.511Z,86.91
2023-03-08T20:11:07.976Z,84.45
2023-03-08T20:13:35.400Z,87.75
2023-03-08T20:16:02.866Z,86.84
2023-03-08T20:18:30.350Z,84.53
2023-03-08T20:20:59.056Z,87.25
2023-03-08T20:23:26.911Z,86.68
2023-03-08T20:25:55.652Z,83.68
2023-03-08T20:28:23.170Z,88.85
2023-03-08T20:30:50.813Z,89.14
2023-03-08T20:33:18.420Z,91.82
2023-03-08T20:35:47.103Z,92.37
2023-03-08T20:38:14.851Z,90.49
2023-03-08T20:40:42.241Z,90.74
2023-03-08T20:43:11.835Z,91.68
2023-03-08T20:45:40.116Z,90.68
2023-03-08T20:48:07.754Z,90.58
2023-03-08T20:50:35.326Z,92.36
2023-03-08T20:53:03.247Z,91.26
2023-03-08T20:55:30.735Z,92.60
2023-03-08T20:57:58.308Z,89.20
2023-03-08T21:00:27.602Z,91.26
2023-03-08T21:02:55.676Z,93.19
2023-03-08T21:05:23.241Z,93.20
2023-03-08T21:07:50.789Z,93.78
2023-03-08T21:10:18.843Z,94.13
2023-03-08T21:12:46.379Z,93.93
2023-03-08T21:15:13.937Z,94.39
2023-03-08T21:17:42.839Z,94.53
2023-03-08T21:20:11.744Z,91.43
2023-03-08T21:22:39.305Z,92.99
2023-03-08T21:25:07.525Z,93.13
2023-03-08T21:27:34.939Z,91.93
2023-03-08T21:30:02.448Z,89.34
2023-03-08T21:32:30.255Z,92.51
2023-03-08T21:34:59.216Z,92.65
2023-03-08T21:37:26.763Z,91.04
2023-03-08T21:39:54.525Z,90.26
2023-03-08T21:42:21.965Z,89.05
2023-03-08T21:44:49.435Z,89.33
2023-03-08T21:47:17.015Z,92.79
2023-03-08T21:49:44.514Z,93.36
2023-03-08T21:52:13.326Z,91.87
2023-03-08T21:54:40.748Z,92.59
2023-03-08T21:57:08.245Z,94.01
2023-03-08T21:59:36.282Z,95.28
2023-03-08T22:02:03.843Z,96.90
2023-03-08T22:04:31.371Z,93.88
2023-03-08T22:06:58.932Z,93.84
2023-03-08T22:09:29.246Z,95.49
2023-03-08T22:11:58.540Z,91.89
2023-03-08T22:14:26.351Z,90.93
2023-03-08T22:16:56.342Z,88.23
2023-03-08T22:19:23.851Z,92.50
2023-03-08T22:21:51.327Z,93.55
2023-03-08T22:24:19.033Z,93.05
2023-03-08T22:26:48.032Z,95.37
2023-03-08T22:29:15.524Z,95.88
2023-03-08T22:31:43.009Z,93.63
2023-03-08T22:34:10.439Z,94.48
2023-03-08T22:36:37.860Z,95.90
2023-03-08T22:39:07.528Z,94.56
2023-03-08T22:41:34.964Z,94.60
2023-03-08T22:44:04.097Z,96.50
2023-03-08T22:46:31.837Z,96.95
2023-03-08T22:49:04.854Z,96.73
2023-03-08T22:51:32.355Z,98.55
2023-03-08T22:54:03.882Z,93.27
2023-03-08T22:56:33.180Z,94.32
2023-03-08T22:59:01.414Z,95.46
2023-03-08T23:01:32.487Z,94.88
2023-03-08T23:04:01.418Z,95.45
2023-03-08T23:06:30.229Z,92.21
2023-03-08T23:08:58.738Z,91.47
2023-03-08T23:11:26.916Z,90.15
2023-03-08T23:13:54.479Z,89.72
2023-03-08T23:16:22.779Z,91.67
2023-03-08T23:18:53.089Z,89.06
2023-03-08T23:21:22.399Z,92.34
2023-03-08T23:23:50.059Z,95.02
2023-03-08T23:26:23.807Z,93.16
2023-03-08T23:28:51.616Z,94.00
2023-03-08T23:31:21.374Z,94.05
2023-03-08T23:33:49.112Z,89.69
2023-03-08T23:36:20.567Z,89.96
2023-03-08T23:38:48.200Z,91.95
2023-03-08T23:41:16.917Z,91.93
2023-03-08T23:43:44.601Z,91.98
2023-03-08T23:46:25.205Z,91.62
2023-03-08T23:48:59.235Z,92.59
2023-03-08T23:51:30.300Z,93.62
2023-03-08T23:53:59.474Z,95.11
2023-03-08T23:56:30.626Z,97.44
2023-03-08T23:59:01.238Z,92.81
